Airfield :
LOGIN :

Register | Disclaimer

   EN    FR    IT 

 










Legend :    VFR   Marginal VFR   IFR   Intensive IFR   Very Intensive IFR
Visi :
Ceiling :
>= 8 km
>= 3000ft
5 to 8 km
1000 to 3000 ft
1500m to 5 km
500 to 1000 ft
800 to 1500m
200 to 500 ft
< 800m
< 200 ft
Symbols :   Thunderstorms  Fog  Heavy snow  Heavy precipitations  Wind > 20 kt
SIGMETs :     Misc.  Thunderstorms  Icing  Turbulence  Mountain Waves  Volcanic Ashes






- Airport Elevation : 330 ft
- IATA code : LVA


LFOV - Laval-Entrammes

CURRENT METAR :
  • 110400Z AUTO 34007KT 9999 FEW018 SCT039 05/03 Q1011

EXPIRED METARs :
  • 110330Z AUTO 33006KT 9999 BKN038 05/03 Q1011
  • 110300Z AUTO 33005KT 9000 OVC037 05/04 Q1011
  • 110230Z AUTO 34007KT 7000 FEW015 BKN035 BKN100 05/04 Q1011
  • 110200Z AUTO 35007KT 7000 OVC034 06/04 Q1011
  • 110130Z AUTO 34006KT 6000 FEW014 BKN038 BKN120 06/04 Q1010
  • 110100Z AUTO 34006KT 6000 FEW017 SCT022 BKN036 06/05 Q1010

TAF N/A



MET'MAP, your aeronautical weather chart ! - Copyright ORBIFLY December 2007 - Disclaimer

ORBIFLY MET'MAP TEAM :

Programming & Development : Alexandra Zaïnal
Concept & original design : Baudouin d'Aumeries
Assistance for programming : Marc-Olivier Méhu
Technical & hardware support : Manuel Goepfert

Contact : metmap@orbifly.com




SOURCES & CREDITS :

   NOAA